createdAt,value
2017-08-25T00:00:29.187Z,17.50
2017-08-25T00:02:57.564Z,17.40
2017-08-25T00:05:25.713Z,17.30
2017-08-25T00:07:54.059Z,17.30
2017-08-25T00:10:22.413Z,17.30
2017-08-25T00:12:50.770Z,17.30
2017-08-25T00:15:19.443Z,17.30
2017-08-25T00:17:47.787Z,17.20
2017-08-25T00:20:16.910Z,17.20
2017-08-25T00:22:45.284Z,17.20
2017-08-25T00:25:13.661Z,17.10
2017-08-25T00:27:42.018Z,17.10
2017-08-25T00:30:10.370Z,17.10
2017-08-25T00:32:38.735Z,17.10
2017-08-25T00:35:07.085Z,17.10
2017-08-25T00:37:35.449Z,17.20
2017-08-25T00:40:03.933Z,17.30
2017-08-25T00:42:32.087Z,17.30
2017-08-25T00:45:01.488Z,17.40
2017-08-25T00:47:29.821Z,17.40
2017-08-25T00:49:59.082Z,17.30
2017-08-25T00:52:28.377Z,17.30
2017-08-25T00:54:56.386Z,17.30
2017-08-25T00:57:24.900Z,17.30
2017-08-25T00:59:54.023Z,17.40
2017-08-25T01:02:22.374Z,17.40
2017-08-25T01:04:50.753Z,17.40
2017-08-25T01:07:18.423Z,17.50
2017-08-25T01:09:46.830Z,17.50
2017-08-25T01:12:15.465Z,17.50
2017-08-25T01:14:43.840Z,17.40
2017-08-25T01:17:12.217Z,17.40
2017-08-25T01:19:40.563Z,17.40
2017-08-25T01:22:08.252Z,17.50
2017-08-25T01:24:36.420Z,17.40
2017-08-25T01:27:13.774Z,17.40
2017-08-25T01:29:42.546Z,17.30
2017-08-25T01:35:17.845Z,17.30
2017-08-25T01:37:45.919Z,17.30
2017-08-25T01:40:14.197Z,17.40
2017-08-25T01:42:42.357Z,17.50
2017-08-25T01:45:10.429Z,17.70
2017-08-25T01:47:38.442Z,17.80
2017-08-25T01:50:06.113Z,17.70
2017-08-25T01:52:34.324Z,17.60
2017-08-25T01:55:01.986Z,17.60
2017-08-25T01:57:30.582Z,17.50
2017-08-25T01:59:59.015Z,17.50
2017-08-25T02:02:27.526Z,17.50
2017-08-25T02:04:55.284Z,17.60
2017-08-25T02:07:23.630Z,17.60
2017-08-25T02:09:52.406Z,17.60
2017-08-25T02:12:20.774Z,17.50
2017-08-25T02:14:49.110Z,17.60
2017-08-25T02:17:17.468Z,17.60
2017-08-25T02:19:45.898Z,17.60
2017-08-25T02:22:14.255Z,17.50
2017-08-25T02:24:42.610Z,17.50
2017-08-25T02:27:11.280Z,17.30
2017-08-25T02:29:39.755Z,17.30
2017-08-25T02:32:08.100Z,17.30
2017-08-25T02:34:36.455Z,17.30
2017-08-25T02:37:05.088Z,17.20
2017-08-25T02:39:33.440Z,17.20
2017-08-25T02:42:01.782Z,17.20
2017-08-25T02:44:30.135Z,17.10
2017-08-25T02:46:59.170Z,17.00
2017-08-25T02:49:28.328Z,17.00
2017-08-25T02:51:56.821Z,17.10
2017-08-25T02:54:25.357Z,17.00
2017-08-25T02:56:53.693Z,17.00
2017-08-25T02:59:22.808Z,16.80
2017-08-25T03:01:51.157Z,16.80
2017-08-25T03:04:19.514Z,16.80
2017-08-25T03:06:48.157Z,16.70
2017-08-25T03:09:16.498Z,16.70
2017-08-25T03:11:44.951Z,16.70
2017-08-25T03:14:13.319Z,16.70
2017-08-25T03:16:41.673Z,16.70
2017-08-25T03:19:10.020Z,16.60
2017-08-25T03:21:38.366Z,16.60
2017-08-25T03:24:06.720Z,16.60
2017-08-25T03:26:35.089Z,16.50
2017-08-25T03:29:03.442Z,16.50
2017-08-25T03:31:31.784Z,16.40
2017-08-25T03:34:00.145Z,16.40
2017-08-25T03:36:28.501Z,16.40
2017-08-25T03:38:56.866Z,16.40
2017-08-25T03:41:25.214Z,16.30
2017-08-25T03:43:53.593Z,16.20
2017-08-25T03:46:22.186Z,16.20
2017-08-25T03:48:50.596Z,16.20
2017-08-25T03:51:18.968Z,16.10
2017-08-25T03:53:47.325Z,16.10
2017-08-25T03:56:15.683Z,16.10
2017-08-25T03:58:44.257Z,16.10
2017-08-25T04:01:12.626Z,16.10
2017-08-25T04:03:41.006Z,16.10
2017-08-25T04:06:09.344Z,16.10
2017-08-25T04:08:37.702Z,16.20
2017-08-25T04:11:06.058Z,16.20
2017-08-25T04:13:34.410Z,16.20
2017-08-25T04:16:02.989Z,16.20
2017-08-25T04:18:31.415Z,16.10
2017-08-25T04:20:59.775Z,16.10
2017-08-25T04:23:28.130Z,16.10
2017-08-25T04:25:56.489Z,16.10
2017-08-25T04:28:24.844Z,15.90
2017-08-25T04:30:53.290Z,15.90
2017-08-25T04:33:21.642Z,16.00
2017-08-25T04:35:50.204Z,16.00
2017-08-25T04:38:18.543Z,16.00
2017-08-25T04:40:46.649Z,16.00
2017-08-25T04:43:15.329Z,16.00
2017-08-25T04:45:44.008Z,16.10
2017-08-25T04:48:12.363Z,16.00
2017-08-25T04:50:40.757Z,16.10
2017-08-25T04:53:09.184Z,16.10
2017-08-25T04:55:37.782Z,16.10
2017-08-25T04:58:06.192Z,16.10
2017-08-25T05:00:34.997Z,16.20
2017-08-25T05:03:03.359Z,16.20
2017-08-25T05:05:31.735Z,16.20
2017-08-25T05:08:00.082Z,16.20
2017-08-25T05:10:28.598Z,16.40
2017-08-25T05:12:59.565Z,16.40
2017-08-25T05:15:27.919Z,16.50
2017-08-25T05:17:59.242Z,16.50
2017-08-25T05:20:27.718Z,16.60
2017-08-25T05:23:02.006Z,16.60
2017-08-25T05:25:30.354Z,16.70
2017-08-25T05:27:58.715Z,16.60
2017-08-25T05:30:27.067Z,16.70
2017-08-25T05:32:56.180Z,16.80
2017-08-25T05:35:24.534Z,16.80
2017-08-25T05:37:52.912Z,16.90
2017-08-25T05:40:21.482Z,17.00
2017-08-25T05:42:49.917Z,17.10
2017-08-25T05:45:18.541Z,17.20
2017-08-25T05:47:46.887Z,17.30
2017-08-25T05:50:16.018Z,17.40
2017-08-25T05:52:44.365Z,17.30
2017-08-25T05:55:12.736Z,17.40
2017-08-25T05:57:41.292Z,17.50
2017-08-25T06:00:10.308Z,17.50
2017-08-25T06:02:39.432Z,17.50
2017-08-25T06:05:07.801Z,17.50
2017-08-25T06:07:36.151Z,17.50
2017-08-25T06:10:04.524Z,17.50
2017-08-25T06:12:33.148Z,17.50
2017-08-25T06:15:01.512Z,17.50
2017-08-25T06:17:29.947Z,17.50
2017-08-25T06:19:58.302Z,17.50
2017-08-25T06:22:26.945Z,17.60
2017-08-25T06:24:55.283Z,17.60
2017-08-25T06:27:23.644Z,17.60
2017-08-25T06:29:52.071Z,17.60
2017-08-25T06:32:20.549Z,17.60
2017-08-25T06:34:48.905Z,17.60
2017-08-25T06:37:17.275Z,17.70
2017-08-25T06:39:46.405Z,17.80
2017-08-25T06:42:15.542Z,17.80
2017-08-25T06:44:43.903Z,17.80
2017-08-25T06:47:12.262Z,17.90
2017-08-25T06:49:40.843Z,17.90
2017-08-25T06:52:09.210Z,18.00
2017-08-25T06:54:37.561Z,18.10
2017-08-25T06:57:05.919Z,18.20
2017-08-25T06:59:34.319Z,18.30
2017-08-25T07:02:02.494Z,18.40
2017-08-25T07:04:31.601Z,18.30
2017-08-25T07:06:59.971Z,18.30
2017-08-25T07:09:28.335Z,18.40
2017-08-25T07:11:56.689Z,18.40
2017-08-25T07:14:25.084Z,18.40
2017-08-25T07:16:53.462Z,18.40
2017-08-25T07:19:22.043Z,18.50
2017-08-25T07:21:50.396Z,18.50
2017-08-25T07:24:19.553Z,18.70
2017-08-25T07:26:48.332Z,18.70
2017-08-25T07:29:16.694Z,18.70
2017-08-25T07:31:45.071Z,18.80
2017-08-25T07:34:13.530Z,18.80
2017-08-25T07:36:41.886Z,18.70
2017-08-25T07:39:10.381Z,18.70
2017-08-25T07:41:38.743Z,18.80
2017-08-25T07:44:07.104Z,18.80
2017-08-25T07:46:36.229Z,19.00
2017-08-25T07:49:04.704Z,19.00
2017-08-25T07:51:33.054Z,19.10
2017-08-25T07:54:01.428Z,19.10
2017-08-25T07:56:29.777Z,19.20
2017-08-25T07:58:58.141Z,19.20
2017-08-25T08:01:26.512Z,19.40
2017-08-25T08:03:54.862Z,19.50
2017-08-25T08:06:23.236Z,19.70
2017-08-25T08:08:51.605Z,20.00
2017-08-25T08:11:20.084Z,20.10
2017-08-25T08:13:48.436Z,20.20
2017-08-25T08:16:17.558Z,20.20
2017-08-25T08:18:46.690Z,20.10
2017-08-25T08:21:15.065Z,20.10
2017-08-25T08:23:43.426Z,20.10
2017-08-25T08:26:11.796Z,20.10
2017-08-25T08:28:40.151Z,20.00
2017-08-25T08:31:08.609Z,20.00
2017-08-25T08:33:36.972Z,19.90
2017-08-25T08:36:05.143Z,19.90
2017-08-25T08:38:33.516Z,19.90
2017-08-25T08:41:02.373Z,19.90
2017-08-25T08:43:30.718Z,19.90
2017-08-25T08:45:59.189Z,20.00
2017-08-25T08:48:27.564Z,20.00
2017-08-25T08:50:55.915Z,20.10
2017-08-25T08:53:25.046Z,20.20
2017-08-25T08:55:53.613Z,20.20
2017-08-25T08:58:21.990Z,20.20
2017-08-25T09:00:50.342Z,20.30
2017-08-25T09:03:18.699Z,20.40
2017-08-25T09:05:53.567Z,20.50
2017-08-25T09:08:21.942Z,20.60
2017-08-25T09:10:50.996Z,20.70
2017-08-25T09:13:25.560Z,20.80
2017-08-25T09:15:58.129Z,20.90
2017-08-25T09:18:28.143Z,20.90
2017-08-25T09:20:57.327Z,20.90
2017-08-25T09:23:30.052Z,20.90
2017-08-25T09:26:05.170Z,21.00
2017-08-25T09:28:33.807Z,21.10
2017-08-25T09:31:12.994Z,21.10
2017-08-25T09:36:26.605Z,21.30
2017-08-25T09:38:55.445Z,21.30
2017-08-25T09:41:25.133Z,21.40
2017-08-25T09:43:54.096Z,21.50
2017-08-25T09:46:30.805Z,21.60
2017-08-25T09:48:59.239Z,21.70
2017-08-25T09:51:27.612Z,21.80
2017-08-25T09:53:55.990Z,21.90
2017-08-25T09:56:24.230Z,21.80
2017-08-25T09:58:52.592Z,21.90
2017-08-25T10:01:20.943Z,22.00
2017-08-25T10:03:49.289Z,22.00
2017-08-25T10:06:18.006Z,22.00
2017-08-25T10:08:46.368Z,22.10
2017-08-25T10:11:14.722Z,22.10
2017-08-25T10:13:43.303Z,22.20
2017-08-25T10:16:11.677Z,22.30
2017-08-25T10:18:40.155Z,22.40
2017-08-25T10:21:08.492Z,22.40
2017-08-25T10:23:36.852Z,22.40
2017-08-25T10:26:05.415Z,22.60
2017-08-25T10:28:34.091Z,22.70
2017-08-25T10:31:02.458Z,22.80
2017-08-25T10:33:41.945Z,22.90
2017-08-25T10:36:21.564Z,23.00
2017-08-25T10:39:00.978Z,23.10
2017-08-25T10:41:40.531Z,23.00
2017-08-25T10:44:19.968Z,23.10
2017-08-25T10:46:48.323Z,23.10
2017-08-25T10:49:16.780Z,23.10
2017-08-25T10:51:45.155Z,23.20
2017-08-25T10:54:13.686Z,23.30
2017-08-25T10:56:42.035Z,23.30
2017-08-25T10:59:10.755Z,23.50
2017-08-25T11:01:39.412Z,23.50
2017-08-25T11:04:12.870Z,23.50
2017-08-25T11:06:43.116Z,23.70
2017-08-25T11:09:15.039Z,23.70
2017-08-25T11:11:43.397Z,23.80
2017-08-25T11:14:18.357Z,23.90
2017-08-25T11:16:46.729Z,24.10
2017-08-25T11:19:15.082Z,24.20
2017-08-25T11:21:44.198Z,24.20
2017-08-25T11:24:12.563Z,24.20
2017-08-25T11:26:40.917Z,24.20
2017-08-25T11:29:09.275Z,24.30
2017-08-25T11:31:37.967Z,24.20
2017-08-25T11:34:06.525Z,24.20
2017-08-25T11:36:34.879Z,24.30
2017-08-25T11:39:02.903Z,24.30
2017-08-25T11:41:31.415Z,24.50
2017-08-25T11:43:59.787Z,24.60
2017-08-25T11:46:28.133Z,24.80
2017-08-25T11:48:57.458Z,24.80
2017-08-25T11:51:25.929Z,24.80
2017-08-25T11:53:54.535Z,25.00
2017-08-25T11:56:23.091Z,25.20
2017-08-25T11:58:51.434Z,25.40
2017-08-25T12:01:19.951Z,25.50
2017-08-25T12:03:48.589Z,25.50
2017-08-25T12:06:16.945Z,25.70
2017-08-25T12:08:45.287Z,25.50
2017-08-25T12:11:13.643Z,25.40
2017-08-25T12:13:55.486Z,25.50
2017-08-25T12:16:24.646Z,25.70
2017-08-25T12:20:29.220Z,25.90
2017-08-25T12:26:50.404Z,26.20
2017-08-25T12:35:08.060Z,26.30
2017-08-25T12:37:36.437Z,26.50
2017-08-25T12:40:04.811Z,26.60
2017-08-25T12:42:33.158Z,26.60
2017-08-25T12:45:02.278Z,26.70
2017-08-25T12:47:30.640Z,26.70
2017-08-25T12:49:59.009Z,26.80
2017-08-25T12:52:27.372Z,27.00
2017-08-25T12:54:55.888Z,27.10
2017-08-25T12:57:24.244Z,27.10
2017-08-25T12:59:52.585Z,27.20
2017-08-25T13:02:21.167Z,27.50
2017-08-25T13:04:49.510Z,27.70
2017-08-25T13:07:18.070Z,28.00
2017-08-25T13:09:46.447Z,28.10
2017-08-25T13:12:14.821Z,28.10
2017-08-25T13:14:43.508Z,28.00
2017-08-25T13:17:12.805Z,27.50
2017-08-25T13:19:41.159Z,27.50
2017-08-25T13:22:09.515Z,27.50
2017-08-25T13:24:38.037Z,27.50
2017-08-25T13:27:06.408Z,27.30
2017-08-25T13:29:34.751Z,27.20
2017-08-25T13:32:03.111Z,27.20
2017-08-25T13:34:31.694Z,27.20
2017-08-25T13:37:00.041Z,27.00
2017-08-25T13:39:28.492Z,26.90
2017-08-25T13:41:56.855Z,26.90
2017-08-25T13:44:25.343Z,27.00
2017-08-25T13:46:53.699Z,27.00
2017-08-25T13:49:22.739Z,27.00
2017-08-25T13:51:51.111Z,27.00
2017-08-25T13:54:19.471Z,26.90
2017-08-25T13:56:47.839Z,26.80
2017-08-25T13:59:16.186Z,26.60
2017-08-25T14:01:44.589Z,26.40
2017-08-25T14:04:12.965Z,26.30
2017-08-25T14:06:41.313Z,26.10
2017-08-25T14:09:09.681Z,26.10
2017-08-25T14:11:37.843Z,26.10
2017-08-25T14:14:06.192Z,26.10
2017-08-25T14:16:34.742Z,26.00
2017-08-25T14:19:03.527Z,26.10
2017-08-25T14:21:31.871Z,26.20
2017-08-25T14:24:00.178Z,26.40
2017-08-25T14:26:28.552Z,26.70
2017-08-25T14:28:56.936Z,26.90
2017-08-25T14:31:25.360Z,26.90
2017-08-25T14:33:53.709Z,27.00
2017-08-25T14:36:22.071Z,26.90
2017-08-25T14:38:50.653Z,26.90
2017-08-25T14:41:19.119Z,26.90
2017-08-25T14:43:47.491Z,26.90
2017-08-25T14:46:15.839Z,26.80
2017-08-25T14:48:44.195Z,26.60
2017-08-25T14:51:12.616Z,26.60
2017-08-25T14:53:40.992Z,26.50
2017-08-25T14:56:09.368Z,26.50
2017-08-25T14:58:37.724Z,26.50
2017-08-25T15:01:06.078Z,26.40
2017-08-25T15:03:34.495Z,26.40
2017-08-25T15:06:02.845Z,26.40
2017-08-25T15:08:32.169Z,26.50
2017-08-25T15:11:00.604Z,26.50
2017-08-25T15:13:29.227Z,26.60
2017-08-25T15:15:57.583Z,26.70
2017-08-25T15:18:25.940Z,26.60
2017-08-25T15:20:55.072Z,26.80
2017-08-25T15:23:23.449Z,26.70
2017-08-25T15:25:51.824Z,26.80
2017-08-25T15:28:20.258Z,26.80
2017-08-25T15:30:48.885Z,26.90
2017-08-25T15:33:17.244Z,27.00
2017-08-25T15:35:45.633Z,27.00
2017-08-25T15:38:13.999Z,27.00
2017-08-25T15:40:42.383Z,26.80
2017-08-25T15:43:10.717Z,26.70
2017-08-25T15:45:39.201Z,26.60
2017-08-25T15:48:07.556Z,26.60
2017-08-25T15:50:35.910Z,26.60
2017-08-25T15:53:04.271Z,26.60
2017-08-25T15:55:32.840Z,26.60
2017-08-25T15:58:01.181Z,26.60
2017-08-25T16:00:29.534Z,26.60
2017-08-25T16:02:57.902Z,26.40
2017-08-25T16:05:26.268Z,26.30
2017-08-25T16:07:54.619Z,26.20
2017-08-25T16:10:23.240Z,26.00
2017-08-25T16:12:51.599Z,25.90
2017-08-25T16:15:19.954Z,25.90
2017-08-25T16:17:48.306Z,25.90
2017-08-25T16:20:16.670Z,25.90
2017-08-25T16:22:45.152Z,25.90
2017-08-25T16:25:13.497Z,25.90
2017-08-25T16:27:41.859Z,25.90
2017-08-25T16:30:10.215Z,25.80
2017-08-25T16:32:38.570Z,25.80
2017-08-25T16:35:07.002Z,25.80
2017-08-25T16:37:35.366Z,25.80
2017-08-25T16:40:03.710Z,25.70
2017-08-25T16:42:32.086Z,25.60
2017-08-25T16:45:00.435Z,25.50
2017-08-25T16:47:28.796Z,25.40
2017-08-25T16:49:57.213Z,25.40
2017-08-25T16:52:25.559Z,25.30
2017-08-25T16:54:53.913Z,25.30
2017-08-25T16:57:22.265Z,25.20
2017-08-25T16:59:50.715Z,25.10
2017-08-25T17:02:19.100Z,25.00
2017-08-25T17:04:47.469Z,25.00
2017-08-25T17:07:15.824Z,24.90
2017-08-25T17:09:44.174Z,24.90
2017-08-25T17:12:13.310Z,24.70
2017-08-25T17:14:41.688Z,24.70
2017-08-25T17:17:09.959Z,24.70
2017-08-25T17:19:38.315Z,24.70
2017-08-25T17:22:06.663Z,24.60
2017-08-25T17:24:35.022Z,24.50
2017-08-25T17:27:03.379Z,24.50
2017-08-25T17:29:31.836Z,24.30
2017-08-25T17:32:00.213Z,24.30
2017-08-25T17:34:28.571Z,24.20
2017-08-25T17:36:56.923Z,24.00
2017-08-25T17:39:25.291Z,24.00
2017-08-25T17:41:53.638Z,23.80
2017-08-25T17:44:22.003Z,23.80
2017-08-25T17:46:50.442Z,23.70
2017-08-25T17:49:18.815Z,23.70
2017-08-25T17:51:47.179Z,23.60
2017-08-25T17:54:15.528Z,23.60
2017-08-25T17:56:43.893Z,23.60
2017-08-25T17:59:12.347Z,23.60
2017-08-25T18:01:40.721Z,23.60
2017-08-25T18:04:09.099Z,23.50
2017-08-25T18:06:37.473Z,23.50
2017-08-25T18:09:05.478Z,23.50
2017-08-25T18:11:33.834Z,23.40
2017-08-25T18:14:02.198Z,23.40
2017-08-25T18:16:30.670Z,23.30
2017-08-25T18:18:59.104Z,23.30
2017-08-25T18:21:27.452Z,23.30
2017-08-25T18:23:55.827Z,23.30
2017-08-25T18:26:24.384Z,23.20
2017-08-25T18:28:53.065Z,23.20
2017-08-25T18:31:21.424Z,23.20
2017-08-25T18:33:49.814Z,23.10
2017-08-25T18:36:18.175Z,23.00
2017-08-25T18:38:46.562Z,23.00
2017-08-25T18:41:14.906Z,22.90
2017-08-25T18:43:43.313Z,22.90
2017-08-25T18:46:11.742Z,22.80
2017-08-25T18:48:40.107Z,22.80
2017-08-25T18:51:08.596Z,22.70
2017-08-25T18:53:36.966Z,22.70
2017-08-25T18:56:05.499Z,22.60
2017-08-25T18:58:33.895Z,22.50
2017-08-25T19:01:02.556Z,22.40
2017-08-25T19:03:30.894Z,22.40
2017-08-25T19:06:00.035Z,22.30
2017-08-25T19:08:28.379Z,22.20
2017-08-25T19:10:56.542Z,22.20
2017-08-25T19:13:24.917Z,22.20
2017-08-25T19:15:53.279Z,22.10
2017-08-25T19:18:21.657Z,22.10
2017-08-25T19:20:50.028Z,22.10
2017-08-25T19:23:18.393Z,22.10
2017-08-25T19:25:46.767Z,22.00
2017-08-25T19:28:15.112Z,22.00
2017-08-25T19:30:43.475Z,22.00
2017-08-25T19:33:11.832Z,22.00
2017-08-25T19:35:40.232Z,22.00
2017-08-25T19:38:08.592Z,21.90
2017-08-25T19:40:36.950Z,21.90
2017-08-25T19:43:05.134Z,21.90
2017-08-25T19:45:33.513Z,21.80
2017-08-25T19:48:01.902Z,21.80
2017-08-25T19:50:30.253Z,21.70
2017-08-25T19:52:58.419Z,21.80
2017-08-25T19:55:27.555Z,21.80
2017-08-25T19:57:56.121Z,21.80
2017-08-25T20:00:24.471Z,21.80
2017-08-25T20:02:52.825Z,21.80
2017-08-25T20:05:21.169Z,21.70
2017-08-25T20:07:49.531Z,21.60
2017-08-25T20:10:18.011Z,21.60
2017-08-25T20:12:47.051Z,21.50
2017-08-25T20:15:15.622Z,21.50
2017-08-25T20:17:43.973Z,21.50
2017-08-25T20:20:12.321Z,21.40
2017-08-25T20:22:40.689Z,21.30
2017-08-25T20:25:09.046Z,21.30
2017-08-25T20:27:37.406Z,21.30
2017-08-25T20:30:05.775Z,21.20
2017-08-25T20:32:34.143Z,21.20
2017-08-25T20:35:02.509Z,21.20
2017-08-25T20:37:30.864Z,21.10
2017-08-25T20:39:59.433Z,21.10
2017-08-25T20:42:27.773Z,21.00
2017-08-25T20:44:56.184Z,21.00
2017-08-25T20:47:24.553Z,21.00
2017-08-25T20:49:52.932Z,21.00
2017-08-25T20:52:21.269Z,21.00
2017-08-25T20:54:49.638Z,21.00
2017-08-25T20:57:17.993Z,20.90
2017-08-25T20:59:46.372Z,20.90
2017-08-25T21:02:14.757Z,20.80
2017-08-25T21:04:43.111Z,20.80
2017-08-25T21:07:11.463Z,20.80
2017-08-25T21:09:39.826Z,20.70
2017-08-25T21:12:08.169Z,20.70
2017-08-25T21:14:36.531Z,20.70
2017-08-25T21:17:04.890Z,20.70
2017-08-25T21:19:33.242Z,20.60
2017-08-25T21:22:01.615Z,20.60
2017-08-25T21:24:30.194Z,20.70
2017-08-25T21:26:58.543Z,20.60
2017-08-25T21:29:27.048Z,20.60
2017-08-25T21:31:55.423Z,20.70
2017-08-25T21:34:23.779Z,20.70
2017-08-25T21:36:52.139Z,20.70
2017-08-25T21:39:20.511Z,20.70
2017-08-25T21:41:48.927Z,20.70
2017-08-25T21:44:17.274Z,20.70
2017-08-25T21:46:46.398Z,20.70
2017-08-25T21:49:14.774Z,20.70
2017-08-25T21:51:43.128Z,20.70
2017-08-25T21:54:11.492Z,20.70
2017-08-25T21:56:39.862Z,20.70
2017-08-25T21:59:08.202Z,20.80
2017-08-25T22:01:36.575Z,20.80
2017-08-25T22:04:04.744Z,20.80
2017-08-25T22:06:33.104Z,20.90
2017-08-25T22:09:01.580Z,20.90
2017-08-25T22:11:32.126Z,21.00
2017-08-25T22:14:00.485Z,21.00
2017-08-25T22:16:29.005Z,21.00
2017-08-25T22:18:57.541Z,21.00
2017-08-25T22:21:26.056Z,21.00
2017-08-25T22:23:54.407Z,21.00
2017-08-25T22:26:22.767Z,21.00
2017-08-25T22:28:51.606Z,21.00
2017-08-25T22:31:20.024Z,21.00
2017-08-25T22:33:48.401Z,20.90
2017-08-25T22:36:16.749Z,20.90
2017-08-25T22:38:46.078Z,20.70
2017-08-25T22:41:14.655Z,20.70
2017-08-25T22:43:43.030Z,20.70
2017-08-25T22:46:11.339Z,20.70
2017-08-25T22:48:39.697Z,20.60
2017-08-25T22:51:08.274Z,20.60
2017-08-25T22:53:36.842Z,20.50
2017-08-25T22:56:05.205Z,20.50
2017-08-25T22:58:33.564Z,20.50
2017-08-25T23:01:01.922Z,20.50
2017-08-25T23:03:30.296Z,20.50
2017-08-25T23:05:58.630Z,20.50
2017-08-25T23:08:26.995Z,20.50
2017-08-25T23:10:55.368Z,20.50
2017-08-25T23:13:23.743Z,20.50
2017-08-25T23:15:52.102Z,20.50
2017-08-25T23:18:20.462Z,20.60
2017-08-25T23:20:48.835Z,20.60
2017-08-25T23:23:17.179Z,20.60
2017-08-25T23:25:45.535Z,20.60
2017-08-25T23:28:13.960Z,20.60
2017-08-25T23:30:42.324Z,20.60
2017-08-25T23:33:10.903Z,20.70
2017-08-25T23:35:39.335Z,20.70
2017-08-25T23:38:07.673Z,20.70
2017-08-25T23:40:36.800Z,20.80
2017-08-25T23:43:05.175Z,20.70
2017-08-25T23:45:33.509Z,20.80
2017-08-25T23:48:02.672Z,20.80
2017-08-25T23:50:31.273Z,20.80
2017-08-25T23:52:59.649Z,20.80
2017-08-25T23:55:28.180Z,20.80
2017-08-25T23:57:56.709Z,20.90
